sensor_id;sensor_type;location;lat;lon;timestamp;pressure;altitude;pressure_sealevel;temperature;humidity
5350;BME280;2697;42.144;24.794;2023-02-11T00:00:30;151144.25;;;-5.57;100.00
5350;BME280;2697;42.144;24.794;2023-02-11T00:02:55;151129.97;;;-5.63;100.00
5350;BME280;2697;42.144;24.794;2023-02-11T00:05:20;151080.63;;;-5.82;100.00
5350;BME280;2697;42.144;24.794;2023-02-11T00:07:46;151075.47;;;-5.84;100.00
5350;BME280;2697;42.144;24.794;2023-02-11T00:10:11;151067.63;;;-5.87;100.00
5350;BME280;2697;42.144;24.794;2023-02-11T00:12:37;151089.69;;;-5.79;100.00
5350;BME280;2697;42.144;24.794;2023-02-11T00:15:04;151102.72;;;-5.74;100.00
5350;BME280;2697;42.144;24.794;2023-02-11T00:17:31;151081.94;;;-5.82;100.00
5350;BME280;2697;42.144;24.794;2023-02-11T00:19:56;151113.06;;;-5.69;100.00
5350;BME280;2697;42.144;24.794;2023-02-11T00:22:22;151056.03;;;-5.92;100.00
5350;BME280;2697;42.144;24.794;2023-02-11T00:24:47;151118.31;;;-5.67;100.00
5350;BME280;2697;42.144;24.794;2023-02-11T00:27:13;151149.44;;;-5.55;100.00
5350;BME280;2697;42.144;24.794;2023-02-11T00:29:38;151096.22;;;-5.76;100.00
5350;BME280;2697;42.144;24.794;2023-02-11T00:32:04;151088.41;;;-5.79;100.00
5350;BME280;2697;42.144;24.794;2023-02-11T00:34:31;151088.41;;;-5.79;100.00
5350;BME280;2697;42.144;24.794;2023-02-11T00:36:57;151098.81;;;-5.75;100.00
5350;BME280;2697;42.144;24.794;2023-02-11T00:39:22;151118.31;;;-5.67;100.00
5350;BME280;2697;42.144;24.794;2023-02-11T00:41:48;151100.13;;;-5.75;100.00
5350;BME280;2697;42.144;24.794;2023-02-11T00:44:13;151063.75;;;-5.89;100.00
5350;BME280;2697;42.144;24.794;2023-02-11T00:46:39;151026.19;;;-6.04;100.00
5350;BME280;2697;42.144;24.794;2023-02-11T00:49:04;151044.31;;;-5.96;100.00
5350;BME280;2697;42.144;24.794;2023-02-11T00:51:29;151023.59;;;-6.05;100.00
5350;BME280;2697;42.144;24.794;2023-02-11T00:53:55;151019.66;;;-6.06;100.00
5350;BME280;2697;42.144;24.794;2023-02-11T00:56:20;151005.41;;;-6.12;100.00
5350;BME280;2697;42.144;24.794;2023-02-11T00:58:46;151004.13;;;-6.12;100.00
5350;BME280;2697;42.144;24.794;2023-02-11T01:01:12;150991.13;;;-6.17;100.00
5350;BME280;2697;42.144;24.794;2023-02-11T01:03:38;150976.88;;;-6.23;100.00
5350;BME280;2697;42.144;24.794;2023-02-11T01:06:05;151004.13;;;-6.12;100.00
5350;BME280;2697;42.144;24.794;2023-02-11T01:08:31;151002.84;;;-6.13;100.00
5350;BME280;2697;42.144;24.794;2023-02-11T01:10:59;151018.38;;;-6.07;100.00
5350;BME280;2697;42.144;24.794;2023-02-11T01:13:26;151084.53;;;-5.81;100.00
5350;BME280;2697;42.144;24.794;2023-02-11T01:15:51;151165.00;;;-5.49;100.00
5350;BME280;2697;42.144;24.794;2023-02-11T01:18:17;151187.06;;;-5.40;100.00
5350;BME280;2697;42.144;24.794;2023-02-11T01:20:42;151205.25;;;-5.33;100.00
5350;BME280;2697;42.144;24.794;2023-02-11T01:23:07;151228.63;;;-5.24;100.00
5350;BME280;2697;42.144;24.794;2023-02-11T01:25:33;151172.81;;;-5.46;100.00
5350;BME280;2697;42.144;24.794;2023-02-11T01:27:58;151140.31;;;-5.59;100.00
5350;BME280;2697;42.144;24.794;2023-02-11T01:30:23;151128.66;;;-5.63;100.00
5350;BME280;2697;42.144;24.794;2023-02-11T01:32:49;151146.84;;;-5.56;100.00
5350;BME280;2697;42.144;24.794;2023-02-11T01:35:14;151210.44;;;-5.31;100.00
5350;BME280;2697;42.144;24.794;2023-02-11T01:37:40;151258.50;;;-5.12;100.00
5350;BME280;2697;42.144;24.794;2023-02-11T01:40:11;151284.50;;;-5.02;100.00
5350;BME280;2697;42.144;24.794;2023-02-11T01:42:37;151329.94;;;-4.84;100.00
5350;BME280;2697;42.144;24.794;2023-02-11T01:48:07;151340.34;;;-4.80;100.00
5350;BME280;2697;42.144;24.794;2023-02-11T01:50:35;151336.47;;;-4.82;100.00
5350;BME280;2697;42.144;24.794;2023-02-11T01:53:02;151303.97;;;-4.95;100.00
5350;BME280;2697;42.144;24.794;2023-02-11T01:55:48;151332.59;;;-4.83;100.00
5350;BME280;2697;42.144;24.794;2023-02-11T01:58:36;151253.31;;;-5.14;100.00
5350;BME280;2697;42.144;24.794;2023-02-11T02:01:03;151265.03;;;-5.10;100.00
5350;BME280;2697;42.144;24.794;2023-02-11T02:03:33;151288.41;;;-5.01;100.00
5350;BME280;2697;42.144;24.794;2023-02-11T02:06:09;151335.16;;;-4.82;100.00
5350;BME280;2697;42.144;24.794;2023-02-11T02:08:46;151322.16;;;-4.88;100.00
5350;BME280;2697;42.144;24.794;2023-02-11T02:11:14;151331.22;;;-4.84;100.00
5350;BME280;2697;42.144;24.794;2023-02-11T02:13:39;151310.50;;;-4.92;100.00
5350;BME280;2697;42.144;24.794;2023-02-11T02:16:09;151249.41;;;-5.16;100.00
5350;BME280;2697;42.144;24.794;2023-02-11T02:27:22;151184.47;;;-5.41;100.00
5350;BME280;2697;42.144;24.794;2023-02-11T02:36:13;151091.00;;;-5.78;100.00
5350;BME280;2697;42.144;24.794;2023-02-11T02:41:16;151045.63;;;-5.96;100.00
5350;BME280;2697;42.144;24.794;2023-02-11T02:43:45;151013.19;;;-6.09;100.00
5350;BME280;2697;42.144;24.794;2023-02-11T02:48:42;150908.13;;;-6.50;100.00
5350;BME280;2697;42.144;24.794;2023-02-11T02:57:05;150784.88;;;-6.98;100.00
5350;BME280;2697;42.144;24.794;2023-02-11T03:02:26;150766.78;;;-7.05;100.00
5350;BME280;2697;42.144;24.794;2023-02-11T03:07:40;150686.38;;;-7.37;100.00
5350;BME280;2697;42.144;24.794;2023-02-11T03:11:09;150670.84;;;-7.43;100.00
5350;BME280;2697;42.144;24.794;2023-02-11T03:13:04;150678.63;;;-7.40;100.00
5350;BME280;2697;42.144;24.794;2023-02-11T03:15:36;150650.13;;;-7.51;100.00
5350;BME280;2697;42.144;24.794;2023-02-11T03:18:04;150626.78;;;-7.60;100.00
5350;BME280;2697;42.144;24.794;2023-02-11T03:20:34;150633.25;;;-7.58;100.00
5350;BME280;2697;42.144;24.794;2023-02-11T03:23:11;150571.03;;;-7.82;100.00
5350;BME280;2697;42.144;24.794;2023-02-11T03:25:48;150569.75;;;-7.83;100.00
5350;BME280;2697;42.144;24.794;2023-02-11T03:28:34;150542.56;;;-7.93;100.00
5350;BME280;2697;42.144;24.794;2023-02-11T03:31:10;150511.47;;;-8.06;100.00
5350;BME280;2697;42.144;24.794;2023-02-11T03:33:41;150505.03;;;-8.08;100.00
5350;BME280;2697;42.144;24.794;2023-02-11T03:36:18;150508.91;;;-8.07;100.00
5350;BME280;2697;42.144;24.794;2023-02-11T03:38:48;150537.38;;;-7.95;100.00
5350;BME280;2697;42.144;24.794;2023-02-11T03:41:16;150523.13;;;-8.01;100.00
5350;BME280;2697;42.144;24.794;2023-02-11T03:43:51;150564.59;;;-7.85;100.00
5350;BME280;2697;42.144;24.794;2023-02-11T03:46:20;150567.16;;;-7.84;100.00
5350;BME280;2697;42.144;24.794;2023-02-11T03:48:50;150593.06;;;-7.73;100.00
5350;BME280;2697;42.144;24.794;2023-02-11T03:51:17;150607.34;;;-7.68;100.00
5350;BME280;2697;42.144;24.794;2023-02-11T03:53:45;150595.66;;;-7.72;100.00
5350;BME280;2697;42.144;24.794;2023-02-11T03:56:14;150606.06;;;-7.68;100.00
5350;BME280;2697;42.144;24.794;2023-02-11T03:58:43;150621.63;;;-7.62;100.00
5350;BME280;2697;42.144;24.794;2023-02-11T04:01:09;150620.31;;;-7.63;100.00
5350;BME280;2697;42.144;24.794;2023-02-11T04:03:34;150600.88;;;-7.70;100.00
5350;BME280;2697;42.144;24.794;2023-02-11T04:06:00;150550.34;;;-7.90;100.00
5350;BME280;2697;42.144;24.794;2023-02-11T04:08:25;150572.38;;;-7.82;100.00
5350;BME280;2697;42.144;24.794;2023-02-11T04:10:51;150581.44;;;-7.78;100.00
5350;BME280;2697;42.144;24.794;2023-02-11T04:13:16;150577.56;;;-7.80;100.00
5350;BME280;2697;42.144;24.794;2023-02-11T04:15:41;150593.06;;;-7.73;100.00
5350;BME280;2697;42.144;24.794;2023-02-11T04:18:07;150600.88;;;-7.70;100.00
5350;BME280;2697;42.144;24.794;2023-02-11T04:20:32;150598.28;;;-7.71;100.00
5350;BME280;2697;42.144;24.794;2023-02-11T04:22:58;150594.38;;;-7.73;100.00
5350;BME280;2697;42.144;24.794;2023-02-11T04:25:24;150615.09;;;-7.65;100.00
5350;BME280;2697;42.144;24.794;2023-02-11T04:27:50;150618.97;;;-7.63;100.00
5350;BME280;2697;42.144;24.794;2023-02-11T04:30:16;150617.69;;;-7.64;100.00
5350;BME280;2697;42.144;24.794;2023-02-11T04:32:41;150624.19;;;-7.61;100.00
5350;BME280;2697;42.144;24.794;2023-02-11T04:35:07;150654.00;;;-7.50;100.00
5350;BME280;2697;42.144;24.794;2023-02-11T04:37:32;150731.75;;;-7.19;100.00
5350;BME280;2697;42.144;24.794;2023-02-11T04:39:58;150751.19;;;-7.11;100.00
5350;BME280;2697;42.144;24.794;2023-02-11T04:42:23;150823.81;;;-6.83;100.00
5350;BME280;2697;42.144;24.794;2023-02-11T04:44:49;150834.22;;;-6.79;100.00
5350;BME280;2697;42.144;24.794;2023-02-11T04:47:14;150834.22;;;-6.79;100.00
5350;BME280;2697;42.144;24.794;2023-02-11T04:49:40;150809.56;;;-6.88;100.00
5350;BME280;2697;42.144;24.794;2023-02-11T04:52:06;150797.88;;;-6.93;100.00
5350;BME280;2697;42.144;24.794;2023-02-11T04:54:32;150804.34;;;-6.91;100.00
5350;BME280;2697;42.144;24.794;2023-02-11T04:56:57;150771.94;;;-7.03;100.00
5350;BME280;2697;42.144;24.794;2023-02-11T04:59:23;150784.88;;;-6.98;100.00
5350;BME280;2697;42.144;24.794;2023-02-11T05:01:48;150808.22;;;-6.89;100.00
5350;BME280;2697;42.144;24.794;2023-02-11T05:04:14;150757.66;;;-7.09;100.00
5350;BME280;2697;42.144;24.794;2023-02-11T05:06:40;150730.44;;;-7.20;100.00
5350;BME280;2697;42.144;24.794;2023-02-11T05:09:05;150752.50;;;-7.11;100.00
5350;BME280;2697;42.144;24.794;2023-02-11T05:11:30;150762.88;;;-7.07;100.00
5350;BME280;2697;42.144;24.794;2023-02-11T05:13:56;150756.38;;;-7.09;100.00
5350;BME280;2697;42.144;24.794;2023-02-11T05:16:21;150797.88;;;-6.93;100.00
5350;BME280;2697;42.144;24.794;2023-02-11T05:18:47;150828.97;;;-6.81;100.00
5350;BME280;2697;42.144;24.794;2023-02-11T05:21:16;150878.25;;;-6.62;100.00
5350;BME280;2697;42.144;24.794;2023-02-11T05:23:42;150950.91;;;-6.33;100.00
5350;BME280;2697;42.144;24.794;2023-02-11T05:26:08;151052.13;;;-5.93;100.00
5350;BME280;2697;42.144;24.794;2023-02-11T05:28:34;151054.72;;;-5.92;100.00
5350;BME280;2697;42.144;24.794;2023-02-11T05:31:00;151094.94;;;-5.77;100.00
5350;BME280;2697;42.144;24.794;2023-02-11T05:33:26;151067.63;;;-5.87;100.00
5350;BME280;2697;42.144;24.794;2023-02-11T05:35:51;151018.38;;;-6.07;100.00
5350;BME280;2697;42.144;24.794;2023-02-11T05:38:17;151043.03;;;-5.97;100.00
5350;BME280;2697;42.144;24.794;2023-02-11T05:40:42;151123.47;;;-5.65;100.00
5350;BME280;2697;42.144;24.794;2023-02-11T05:43:08;151136.44;;;-5.60;100.00
5350;BME280;2697;42.144;24.794;2023-02-11T05:45:33;151161.09;;;-5.51;100.00
5350;BME280;2697;42.144;24.794;2023-02-11T05:47:58;151140.31;;;-5.59;100.00
5350;BME280;2697;42.144;24.794;2023-02-11T05:50:24;151100.13;;;-5.75;100.00
5350;BME280;2697;42.144;24.794;2023-02-11T05:52:50;151067.63;;;-5.87;100.00
5350;BME280;2697;42.144;24.794;2023-02-11T05:55:15;151053.44;;;-5.93;100.00
5350;BME280;2697;42.144;24.794;2023-02-11T05:57:41;151041.72;;;-5.97;100.00
5350;BME280;2697;42.144;24.794;2023-02-11T06:00:07;151030.06;;;-6.02;100.00
5350;BME280;2697;42.144;24.794;2023-02-11T06:02:33;151023.59;;;-6.05;100.00
5350;BME280;2697;42.144;24.794;2023-02-11T06:04:58;151039.13;;;-5.98;100.00
5350;BME280;2697;42.144;24.794;2023-02-11T06:07:24;151054.72;;;-5.92;100.00
5350;BME280;2697;42.144;24.794;2023-02-11T06:09:49;151079.34;;;-5.83;100.00
5350;BME280;2697;42.144;24.794;2023-02-11T06:12:15;151129.97;;;-5.63;100.00
5350;BME280;2697;42.144;24.794;2023-02-11T06:14:40;151140.31;;;-5.59;100.00
5350;BME280;2697;42.144;24.794;2023-02-11T06:17:06;151136.44;;;-5.60;100.00
5350;BME280;2697;42.144;24.794;2023-02-11T06:19:31;151139.03;;;-5.59;100.00
5350;BME280;2697;42.144;24.794;2023-02-11T06:21:57;151145.56;;;-5.57;100.00
5350;BME280;2697;42.144;24.794;2023-02-11T06:24:22;151179.28;;;-5.43;100.00
5350;BME280;2697;42.144;24.794;2023-02-11T06:26:48;151229.94;;;-5.24;100.00
5350;BME280;2697;42.144;24.794;2023-02-11T06:29:13;151262.44;;;-5.11;100.00
5350;BME280;2697;42.144;24.794;2023-02-11T06:31:39;151303.97;;;-4.95;100.00
5350;BME280;2697;42.144;24.794;2023-02-11T06:34:05;151332.59;;;-4.83;100.00
5350;BME280;2697;42.144;24.794;2023-02-11T06:36:31;151376.72;;;-4.66;100.00
5350;BME280;2697;42.144;24.794;2023-02-11T06:38:56;151407.94;;;-4.54;100.00
5350;BME280;2697;42.144;24.794;2023-02-11T06:41:22;151314.38;;;-4.91;100.00
5350;BME280;2697;42.144;24.794;2023-02-11T06:43:48;151363.75;;;-4.71;100.00
5350;BME280;2697;42.144;24.794;2023-02-11T06:46:14;151409.22;;;-4.53;100.00
5350;BME280;2697;42.144;24.794;2023-02-11T06:48:39;151391.03;;;-4.61;100.00
5350;BME280;2697;42.144;24.794;2023-02-11T06:51:08;151459.91;;;-4.34;100.00
5350;BME280;2697;42.144;24.794;2023-02-11T06:53:36;151526.22;;;-4.08;100.00
5350;BME280;2697;42.144;24.794;2023-02-11T06:56:07;151565.19;;;-3.92;100.00
5350;BME280;2697;42.144;24.794;2023-02-11T06:58:33;151604.22;;;-3.77;100.00
5350;BME280;2697;42.144;24.794;2023-02-11T07:00:59;151622.44;;;-3.70;100.00
5350;BME280;2697;42.144;24.794;2023-02-11T07:03:25;151665.38;;;-3.53;100.00
5350;BME280;2697;42.144;24.794;2023-02-11T07:05:50;151692.69;;;-3.42;100.00
5350;BME280;2697;42.144;24.794;2023-02-11T07:08:16;151708.25;;;-3.36;100.00
5350;BME280;2697;42.144;24.794;2023-02-11T07:10:41;151778.53;;;-3.09;100.00
5350;BME280;2697;42.144;24.794;2023-02-11T07:13:07;151805.84;;;-2.98;100.00
5350;BME280;2697;42.144;24.794;2023-02-11T07:15:32;151821.47;;;-2.92;100.00
5350;BME280;2697;42.144;24.794;2023-02-11T07:17:58;151835.81;;;-2.87;100.00
5350;BME280;2697;42.144;24.794;2023-02-11T07:20:24;151863.16;;;-2.76;100.00
5350;BME280;2697;42.144;24.794;2023-02-11T07:22:49;151850.09;;;-2.81;100.00
5350;BME280;2697;42.144;24.794;2023-02-11T07:25:15;151896.97;;;-2.63;100.00
5350;BME280;2697;42.144;24.794;2023-02-11T07:27:40;151923.00;;;-2.52;100.00
5350;BME280;2697;42.144;24.794;2023-02-11T07:30:06;151968.59;;;-2.35;100.00
5350;BME280;2697;42.144;24.794;2023-02-11T07:32:32;152003.78;;;-2.21;100.00
5350;BME280;2697;42.144;24.794;2023-02-11T07:34:57;152036.31;;;-2.08;100.00
5350;BME280;2697;42.144;24.794;2023-02-11T07:37:22;152083.22;;;-1.90;100.00
5350;BME280;2697;42.144;24.794;2023-02-11T07:39:48;152130.13;;;-1.72;96.15
5350;BME280;2697;42.144;24.794;2023-02-11T07:42:13;152169.22;;;-1.56;94.56
5350;BME280;2697;42.144;24.794;2023-02-11T07:44:38;152152.28;;;-1.63;94.97
5350;BME280;2697;42.144;24.794;2023-02-11T07:47:04;152214.84;;;-1.38;91.68
5350;BME280;2697;42.144;24.794;2023-02-11T07:49:29;152233.06;;;-1.31;85.30
5350;BME280;2697;42.144;24.794;2023-02-11T07:51:55;152220.06;;;-1.36;84.49
5350;BME280;2697;42.144;24.794;2023-02-11T07:54:20;152227.84;;;-1.33;79.91
5350;BME280;2697;42.144;24.794;2023-02-11T07:56:46;152230.47;;;-1.32;80.83
5350;BME280;2697;42.144;24.794;2023-02-11T07:59:11;152239.59;;;-1.29;79.75
5350;BME280;2697;42.144;24.794;2023-02-11T08:01:37;152222.66;;;-1.35;80.67
5350;BME280;2697;42.144;24.794;2023-02-11T08:04:02;152246.13;;;-1.26;79.21
5350;BME280;2697;42.144;24.794;2023-02-11T08:06:31;152332.19;;;-0.93;81.96
5350;BME280;2697;42.144;24.794;2023-02-11T08:08:56;152355.66;;;-0.83;79.25
5350;BME280;2697;42.144;24.794;2023-02-11T08:11:25;152394.75;;;-0.68;78.36
5350;BME280;2697;42.144;24.794;2023-02-11T08:13:52;152410.41;;;-0.62;78.10
5350;BME280;2697;42.144;24.794;2023-02-11T08:16:23;152462.56;;;-0.42;78.97
5350;BME280;2697;42.144;24.794;2023-02-11T08:18:50;152476.94;;;-0.36;77.69
5350;BME280;2697;42.144;24.794;2023-02-11T08:21:16;152533.03;;;-0.14;77.55
5350;BME280;2697;42.144;24.794;2023-02-11T08:23:43;152576.09;;;0.03;77.94
5350;BME280;2697;42.144;24.794;2023-02-11T08:26:13;152574.81;;;0.02;75.13
5350;BME280;2697;42.144;24.794;2023-02-11T08:28:41;152585.22;;;0.06;75.00
5350;BME280;2697;42.144;24.794;2023-02-11T08:31:11;152655.69;;;0.34;74.31
5350;BME280;2697;42.144;24.794;2023-02-11T08:33:37;152694.88;;;0.49;74.12
5350;BME280;2697;42.144;24.794;2023-02-11T08:36:12;152680.50;;;0.43;73.15
5350;BME280;2697;42.144;24.794;2023-02-11T08:38:38;152666.16;;;0.38;74.64
5350;BME280;2697;42.144;24.794;2023-02-11T08:41:03;152714.47;;;0.56;73.81
5350;BME280;2697;42.144;24.794;2023-02-11T08:43:29;152731.41;;;0.63;71.99
5350;BME280;2697;42.144;24.794;2023-02-11T08:45:54;152757.53;;;0.73;71.97
5350;BME280;2697;42.144;24.794;2023-02-11T08:48:19;152726.19;;;0.61;72.73
5350;BME280;2697;42.144;24.794;2023-02-11T08:50:45;152751.00;;;0.71;71.91
5350;BME280;2697;42.144;24.794;2023-02-11T08:53:10;152796.72;;;0.89;70.90
5350;BME280;2697;42.144;24.794;2023-02-11T08:55:36;152830.66;;;1.02;71.60
5350;BME280;2697;42.144;24.794;2023-02-11T08:58:01;152820.22;;;0.98;70.75
5350;BME280;2697;42.144;24.794;2023-02-11T09:00:27;152847.66;;;1.08;71.06
5350;BME280;2697;42.144;24.794;2023-02-11T09:02:52;152869.88;;;1.17;70.10
5350;BME280;2697;42.144;24.794;2023-02-11T09:05:18;152890.78;;;1.25;69.69
5350;BME280;2697;42.144;24.794;2023-02-11T09:07:43;152935.22;;;1.42;70.20
5350;BME280;2697;42.144;24.794;2023-02-11T09:10:08;152995.28;;;1.66;70.89
5350;BME280;2697;42.144;24.794;2023-02-11T09:12:34;153024.09;;;1.77;69.22
5350;BME280;2697;42.144;24.794;2023-02-11T09:14:59;153067.19;;;1.94;67.83
5350;BME280;2697;42.144;24.794;2023-02-11T09:17:25;153112.94;;;2.12;67.49
5350;BME280;2697;42.144;24.794;2023-02-11T09:19:50;153165.22;;;2.32;66.31
5350;BME280;2697;42.144;24.794;2023-02-11T09:22:16;153128.66;;;2.18;64.98
5350;BME280;2697;42.144;24.794;2023-02-11T09:24:41;153199.25;;;2.45;64.33
5350;BME280;2697;42.144;24.794;2023-02-11T09:27:06;153214.97;;;2.51;62.98
5350;BME280;2697;42.144;24.794;2023-02-11T09:29:32;153180.94;;;2.38;63.26
5350;BME280;2697;42.144;24.794;2023-02-11T09:31:57;153246.34;;;2.64;62.65
5350;BME280;2697;42.144;24.794;2023-02-11T09:34:22;153262.00;;;2.70;61.96
5350;BME280;2697;42.144;24.794;2023-02-11T09:36:48;153301.28;;;2.85;60.30
5350;BME280;2697;42.144;24.794;2023-02-11T09:39:16;153309.09;;;2.88;59.12
5350;BME280;2697;42.144;24.794;2023-02-11T09:44:31;153331.34;;;2.97;58.65
5350;BME280;2697;42.144;24.794;2023-02-11T09:47:00;153345.78;;;3.02;59.49
5350;BME280;2697;42.144;24.794;2023-02-11T09:49:34;153369.31;;;3.11;58.20
5350;BME280;2697;42.144;24.794;2023-02-11T09:55:28;153419.06;;;3.31;57.59
5350;BME280;2697;42.144;24.794;2023-02-11T09:57:55;153453.06;;;3.44;57.07
5350;BME280;2697;42.144;24.794;2023-02-11T10:00:35;153497.56;;;3.61;55.96
5350;BME280;2697;42.144;24.794;2023-02-11T10:03:27;153510.69;;;3.66;55.82
5350;BME280;2697;42.144;24.794;2023-02-11T10:11:55;153468.78;;;3.50;53.94
5350;BME280;2697;42.144;24.794;2023-02-11T10:20:24;153560.44;;;3.86;52.67
5350;BME280;2697;42.144;24.794;2023-02-11T10:22:57;153581.41;;;3.94;53.21
5350;BME280;2697;42.144;24.794;2023-02-11T10:25:37;153594.47;;;3.99;53.06
5350;BME280;2697;42.144;24.794;2023-02-11T10:28:15;153586.63;;;3.96;52.67
5350;BME280;2697;42.144;24.794;2023-02-11T10:30:55;153661.28;;;4.25;53.09
5350;BME280;2697;42.144;24.794;2023-02-11T10:33:38;153729.41;;;4.51;52.46
5350;BME280;2697;42.144;24.794;2023-02-11T10:36:07;153733.31;;;4.53;52.20
5350;BME280;2697;42.144;24.794;2023-02-11T10:38:35;153762.13;;;4.64;51.09
5350;BME280;2697;42.144;24.794;2023-02-11T10:41:01;153750.38;;;4.60;50.80
5350;BME280;2697;42.144;24.794;2023-02-11T10:43:28;153804.09;;;4.80;50.05
5350;BME280;2697;42.144;24.794;2023-02-11T10:45:55;153749.06;;;4.59;47.60
5350;BME280;2697;42.144;24.794;2023-02-11T10:53:37;153796.25;;;4.77;49.08
5350;BME280;2697;42.144;24.794;2023-02-11T10:56:05;153867.00;;;5.05;48.94
5350;BME280;2697;42.144;24.794;2023-02-11T10:58:35;153828.97;;;4.90;48.48
5350;BME280;2697;42.144;24.794;2023-02-11T11:01:01;153873.56;;;5.07;48.35
5350;BME280;2697;42.144;24.794;2023-02-11T11:03:32;153889.31;;;5.13;48.27
5350;BME280;2697;42.144;24.794;2023-02-11T11:06:04;153906.31;;;5.20;48.38
5350;BME280;2697;42.144;24.794;2023-02-11T11:08:49;153914.22;;;5.23;47.75
5350;BME280;2697;42.144;24.794;2023-02-11T11:11:17;153922.06;;;5.26;48.47
5350;BME280;2697;42.144;24.794;2023-02-11T11:18:47;154079.44;;;5.87;44.89
5350;BME280;2697;42.144;24.794;2023-02-11T11:21:27;153985.00;;;5.51;44.44
5350;BME280;2697;42.144;24.794;2023-02-11T11:23:56;153979.72;;;5.49;44.61
5350;BME280;2697;42.144;24.794;2023-02-11T11:26:25;153998.09;;;5.56;44.40
5350;BME280;2697;42.144;24.794;2023-02-11T11:29:00;153971.88;;;5.46;44.63
5350;BME280;2697;42.144;24.794;2023-02-11T11:33:55;154083.38;;;5.89;42.69
5350;BME280;2697;42.144;24.794;2023-02-11T11:36:29;154080.75;;;5.88;42.62
5350;BME280;2697;42.144;24.794;2023-02-11T11:39:02;154071.53;;;5.84;42.94
5350;BME280;2697;42.144;24.794;2023-02-11T11:41:33;154079.44;;;5.87;43.26
5350;BME280;2697;42.144;24.794;2023-02-11T11:46:48;154074.16;;;5.85;44.04
5350;BME280;2697;42.144;24.794;2023-02-11T11:52:36;154142.44;;;6.12;42.85
5350;BME280;2697;42.144;24.794;2023-02-11T11:55:20;154160.81;;;6.19;43.12
5350;BME280;2697;42.144;24.794;2023-02-11T11:57:46;154187.03;;;6.29;42.50
5350;BME280;2697;42.144;24.794;2023-02-11T12:00:22;154181.81;;;6.27;41.07
5350;BME280;2697;42.144;24.794;2023-02-11T12:03:03;154210.66;;;6.38;38.88
5350;BME280;2697;42.144;24.794;2023-02-11T12:14:11;154253.97;;;6.55;38.23
5350;BME280;2697;42.144;24.794;2023-02-11T12:16:58;154240.84;;;6.50;38.02
5350;BME280;2697;42.144;24.794;2023-02-11T12:25:33;154247.44;;;6.52;39.41
5350;BME280;2697;42.144;24.794;2023-02-11T12:37:57;154355.03;;;6.94;39.70
5350;BME280;2697;42.144;24.794;2023-02-11T12:40:45;154365.56;;;6.98;39.22
5350;BME280;2697;42.144;24.794;2023-02-11T12:43:33;154404.94;;;7.13;38.60
5350;BME280;2697;42.144;24.794;2023-02-11T12:55:19;154345.88;;;6.91;35.48
5350;BME280;2697;42.144;24.794;2023-02-11T12:57:47;154362.91;;;6.97;36.11
5350;BME280;2697;42.144;24.794;2023-02-11T13:00:28;154370.81;;;7.00;35.22
5350;BME280;2697;42.144;24.794;2023-02-11T13:03:23;154361.59;;;6.97;35.53
5350;BME280;2697;42.144;24.794;2023-02-11T13:05:57;154412.84;;;7.17;35.47
5350;BME280;2697;42.144;24.794;2023-02-11T13:11:05;154425.94;;;7.22;35.35
5350;BME280;2697;42.144;24.794;2023-02-11T13:13:38;154395.75;;;7.10;33.45
5350;BME280;2697;42.144;24.794;2023-02-11T13:25:01;154504.72;;;7.52;32.84
5350;BME280;2697;42.144;24.794;2023-02-11T13:27:42;154507.34;;;7.53;32.49
5350;BME280;2697;42.144;24.794;2023-02-11T13:30:28;154483.72;;;7.44;33.60
5350;BME280;2697;42.144;24.794;2023-02-11T13:35:27;154475.84;;;7.41;33.13
5350;BME280;2697;42.144;24.794;2023-02-11T13:37:53;154470.59;;;7.39;33.41
5350;BME280;2697;42.144;24.794;2023-02-11T13:40:25;154441.72;;;7.28;33.54
5350;BME280;2697;42.144;24.794;2023-02-11T13:42:56;154402.31;;;7.12;33.59
5350;BME280;2697;42.144;24.794;2023-02-11T13:48:02;154431.19;;;7.24;33.88
5350;BME280;2697;42.144;24.794;2023-02-11T13:50:36;154418.09;;;7.19;33.94
5350;BME280;2697;42.144;24.794;2023-02-11T13:53:04;154420.72;;;7.20;33.18
5350;BME280;2697;42.144;24.794;2023-02-11T13:55:31;154441.72;;;7.28;32.91
5350;BME280;2697;42.144;24.794;2023-02-11T13:58:32;154458.75;;;7.34;32.35
5350;BME280;2697;42.144;24.794;2023-02-11T14:01:00;154470.59;;;7.39;32.35
5350;BME280;2697;42.144;24.794;2023-02-11T14:03:27;154444.34;;;7.29;32.21
5350;BME280;2697;42.144;24.794;2023-02-11T14:06:26;154399.69;;;7.11;32.03
5350;BME280;2697;42.144;24.794;2023-02-11T14:09:38;154446.97;;;7.30;32.17
5350;BME280;2697;42.144;24.794;2023-02-11T14:12:23;154408.88;;;7.15;32.35
5350;BME280;2697;42.144;24.794;2023-02-11T14:17:33;154389.22;;;7.07;33.90
5350;BME280;2697;42.144;24.794;2023-02-11T14:20:01;154381.28;;;7.04;34.37
5350;BME280;2697;42.144;24.794;2023-02-11T14:22:48;154378.69;;;7.03;34.59
5350;BME280;2697;42.144;24.794;2023-02-11T14:25:21;154391.81;;;7.08;34.70
5350;BME280;2697;42.144;24.794;2023-02-11T14:27:52;154339.28;;;6.88;34.39
5350;BME280;2697;42.144;24.794;2023-02-11T14:33:32;154357.66;;;6.95;34.15
5350;BME280;2697;42.144;24.794;2023-02-11T14:39:07;154315.66;;;6.79;34.71
5350;BME280;2697;42.144;24.794;2023-02-11T14:41:42;154303.84;;;6.74;35.03
5350;BME280;2697;42.144;24.794;2023-02-11T14:44:15;154305.16;;;6.75;35.61
5350;BME280;2697;42.144;24.794;2023-02-11T14:46:46;154305.16;;;6.75;35.34
5350;BME280;2697;42.144;24.794;2023-02-11T14:49:33;154301.22;;;6.73;35.88
5350;BME280;2697;42.144;24.794;2023-02-11T14:52:13;154307.78;;;6.76;35.80
5350;BME280;2697;42.144;24.794;2023-02-11T14:54:41;154260.53;;;6.57;35.94
5350;BME280;2697;42.144;24.794;2023-02-11T14:57:17;154240.84;;;6.50;35.99
5350;BME280;2697;42.144;24.794;2023-02-11T15:00:00;154205.44;;;6.36;36.38
5350;BME280;2697;42.144;24.794;2023-02-11T15:02:34;154177.88;;;6.25;36.54
5350;BME280;2697;42.144;24.794;2023-02-11T15:05:17;154147.66;;;6.14;37.07
5350;BME280;2697;42.144;24.794;2023-02-11T15:07:48;154158.19;;;6.18;36.18
5350;BME280;2697;42.144;24.794;2023-02-11T15:10:20;154158.19;;;6.18;36.67
5350;BME280;2697;42.144;24.794;2023-02-11T15:12:47;154152.94;;;6.16;37.61
5350;BME280;2697;42.144;24.794;2023-02-11T15:15:13;154126.72;;;6.06;37.27
5350;BME280;2697;42.144;24.794;2023-02-11T15:17:40;154121.44;;;6.04;38.04